Hawleyton, New York
Current Conditions -  °F | °C
As of 1:32 AM on Saturday 20 Dec 2014 (Local Time) from KBGM Reporting Station
Overcast Overcast  
Wind Chill: 14°   Ceiling: 900
Heat Index: 24°   Visibility: 10mi
Dew Point: 21°   Wind: 9mph
Humidity: 88%   Direction: 340°NNW
Pressure: 30.13"   Gusts: NA
Location:  42.0523°N, 75.9029°W
Report Text: KBGM 200632Z AUTO 34008KT 10SM OVC009 M04/M06 A3013 RMK AO2 T10441061
Loading
Personal Weather Stations






























Interactive Weather Map New forecast layout! Learn more

10-Day Weather Forecast

Advertisements
Track Severe Weather on mobile